createdAt,value
2022-10-14T00:00:36.761Z,11.75
2022-10-14T00:03:39.724Z,11.73
2022-10-14T00:06:41.324Z,11.72
2022-10-14T00:09:42.871Z,11.71
2022-10-14T00:12:45.443Z,11.71
2022-10-14T00:15:46.973Z,11.69
2022-10-14T00:18:49.136Z,11.68
2022-10-14T00:21:50.785Z,11.68
2022-10-14T00:24:52.358Z,11.66
2022-10-14T00:27:54.616Z,11.66
2022-10-14T00:31:01.351Z,11.66
2022-10-14T00:34:03.369Z,11.65
2022-10-14T00:37:04.885Z,11.63
2022-10-14T00:40:06.902Z,11.64
2022-10-14T00:43:14.089Z,11.63
2022-10-14T00:46:15.758Z,11.62
2022-10-14T00:49:20.526Z,11.62
2022-10-14T00:52:24.709Z,11.61
2022-10-14T00:55:28.213Z,11.61
2022-10-14T00:58:30.729Z,11.61
2022-10-14T01:01:32.452Z,11.61
2022-10-14T01:04:38.168Z,11.57
2022-10-14T01:07:39.665Z,11.55
2022-10-14T01:10:53.847Z,11.55
2022-10-14T01:14:13.672Z,11.54
2022-10-14T01:17:30.650Z,11.53
2022-10-14T01:21:22.705Z,11.52
2022-10-14T01:24:26.904Z,11.52
2022-10-14T01:28:03.888Z,11.52
2022-10-14T01:31:09.870Z,11.50
2022-10-14T01:34:14.972Z,11.50
2022-10-14T01:37:21.808Z,11.50
2022-10-14T01:40:37.275Z,11.50
2022-10-14T01:43:41.085Z,11.49
2022-10-14T01:46:50.123Z,11.49
2022-10-14T01:50:01.941Z,11.48
2022-10-14T01:53:14.849Z,11.49
2022-10-14T01:56:17.446Z,11.48
2022-10-14T01:59:22.743Z,11.47
2022-10-14T02:02:25.177Z,11.45
2022-10-14T02:05:29.525Z,11.45
2022-10-14T02:08:55.445Z,11.45
2022-10-14T02:12:15.327Z,11.43
2022-10-14T02:15:37.076Z,11.43
2022-10-14T02:18:41.662Z,11.42
2022-10-14T02:22:13.940Z,11.43
2022-10-14T02:25:19.901Z,11.42
2022-10-14T02:28:25.514Z,11.42
2022-10-14T02:31:28.492Z,11.40
2022-10-14T02:34:30.256Z,11.38
2022-10-14T02:37:34.178Z,11.37
2022-10-14T02:40:43.022Z,11.37
2022-10-14T02:43:45.686Z,11.37
2022-10-14T02:46:48.330Z,11.37
2022-10-14T02:49:50.358Z,11.38
2022-10-14T02:52:51.919Z,11.38
2022-10-14T02:55:53.466Z,11.38
2022-10-14T02:58:55.032Z,11.38
2022-10-14T03:01:56.604Z,11.39
2022-10-14T03:04:58.255Z,11.38
2022-10-14T03:07:59.795Z,11.36
2022-10-14T03:11:01.347Z,11.35
2022-10-14T03:14:02.939Z,11.34
2022-10-14T03:17:04.517Z,11.34
2022-10-14T03:20:07.018Z,11.34
2022-10-14T03:23:08.529Z,11.35
2022-10-14T03:26:13.863Z,11.35
2022-10-14T03:29:15.776Z,11.35
2022-10-14T03:32:17.309Z,11.35
2022-10-14T03:35:19.147Z,11.36
2022-10-14T03:38:20.698Z,11.36
2022-10-14T03:41:22.327Z,11.35
2022-10-14T03:44:23.826Z,11.35
2022-10-14T03:47:25.396Z,11.36
2022-10-14T03:50:26.912Z,11.36
2022-10-14T03:53:28.480Z,11.35
2022-10-14T03:56:30.075Z,11.37
2022-10-14T03:59:31.616Z,11.35
2022-10-14T04:02:33.196Z,11.36
2022-10-14T04:05:35.036Z,11.37
2022-10-14T04:08:36.566Z,11.37
2022-10-14T04:11:38.089Z,11.36
2022-10-14T04:14:39.642Z,11.36
2022-10-14T04:17:41.207Z,11.35
2022-10-14T04:20:42.785Z,11.34
2022-10-14T04:23:44.375Z,11.36
2022-10-14T04:26:45.941Z,11.34
2022-10-14T04:29:47.544Z,11.33
2022-10-14T04:32:49.137Z,11.33
2022-10-14T04:35:51.685Z,11.35
2022-10-14T04:38:53.181Z,11.34
2022-10-14T04:41:54.716Z,11.32
2022-10-14T04:44:56.228Z,11.31
2022-10-14T04:47:57.787Z,11.32
2022-10-14T04:50:59.290Z,11.34
2022-10-14T04:54:00.829Z,11.33
2022-10-14T04:57:02.739Z,11.33
2022-10-14T05:00:05.044Z,11.32
2022-10-14T05:03:06.609Z,11.31
2022-10-14T05:06:08.205Z,11.30
2022-10-14T05:09:09.777Z,11.28
2022-10-14T05:12:11.293Z,11.35
2022-10-14T05:15:12.870Z,11.69
2022-10-14T05:18:14.436Z,12.07
2022-10-14T05:21:16.058Z,12.30
2022-10-14T05:24:17.585Z,12.32
2022-10-14T05:27:19.329Z,12.27
2022-10-14T05:30:20.871Z,12.19
2022-10-14T05:33:22.757Z,12.13
2022-10-14T05:36:24.305Z,12.08
2022-10-14T05:39:25.824Z,12.00
2022-10-14T05:42:27.560Z,11.93
2022-10-14T05:45:29.152Z,11.88
2022-10-14T05:48:31.367Z,11.82
2022-10-14T05:51:33.627Z,11.76
2022-10-14T05:54:35.400Z,11.73
2022-10-14T05:57:37.077Z,11.67
2022-10-14T06:00:38.761Z,11.62
2022-10-14T06:03:40.367Z,11.59
2022-10-14T06:06:41.877Z,11.56
2022-10-14T06:09:43.425Z,11.54
2022-10-14T06:12:45.012Z,11.51
2022-10-14T06:15:46.581Z,11.48
2022-10-14T06:18:51.041Z,11.45
2022-10-14T06:21:55.932Z,11.45
2022-10-14T06:25:00.453Z,11.44
2022-10-14T06:28:05.751Z,11.43
2022-10-14T06:31:07.343Z,11.39
2022-10-14T06:34:08.964Z,11.37
2022-10-14T06:37:10.623Z,11.34
2022-10-14T06:40:12.216Z,11.32
2022-10-14T06:43:13.781Z,11.30
2022-10-14T06:46:15.400Z,11.28
2022-10-14T06:49:17.055Z,11.27
2022-10-14T06:52:18.617Z,11.26
2022-10-14T06:55:20.166Z,11.26
2022-10-14T06:58:21.726Z,11.25
2022-10-14T07:01:23.837Z,11.24
2022-10-14T07:04:25.468Z,11.24
2022-10-14T07:07:27.031Z,11.26
2022-10-14T07:10:28.567Z,11.27
2022-10-14T07:13:30.208Z,11.28
2022-10-14T07:16:31.805Z,11.30
2022-10-14T07:19:33.334Z,11.31
2022-10-14T07:22:38.842Z,11.31
2022-10-14T07:25:40.709Z,11.32
2022-10-14T07:28:42.351Z,11.33
2022-10-14T07:31:44.053Z,11.36
2022-10-14T07:34:45.581Z,11.37
2022-10-14T07:37:47.802Z,11.39
2022-10-14T07:41:04.973Z,11.39
2022-10-14T07:44:09.572Z,11.40
2022-10-14T07:47:11.381Z,11.42
2022-10-14T07:50:13.451Z,11.45
2022-10-14T07:53:14.968Z,11.47
2022-10-14T07:56:16.787Z,11.47
2022-10-14T07:59:20.823Z,11.48
2022-10-14T08:02:23.500Z,11.46
2022-10-14T08:05:37.723Z,11.46
2022-10-14T08:08:41.569Z,11.46
2022-10-14T08:11:43.724Z,11.50
2022-10-14T08:14:45.305Z,11.53
2022-10-14T08:17:46.825Z,11.55
2022-10-14T08:20:48.391Z,11.58
2022-10-14T08:23:50.164Z,11.61
2022-10-14T08:26:54.414Z,11.64
2022-10-14T08:29:55.961Z,11.66
2022-10-14T08:32:57.524Z,11.70
2022-10-14T08:35:59.081Z,11.77
2022-10-14T08:39:00.637Z,11.84
2022-10-14T08:42:20.992Z,11.91
2022-10-14T08:45:44.012Z,11.97
2022-10-14T08:48:48.098Z,12.03
2022-10-14T08:52:15.826Z,12.09
2022-10-14T08:55:46.459Z,12.17
2022-10-14T08:58:51.152Z,12.22
2022-10-14T09:02:02.148Z,12.27
2022-10-14T09:05:04.224Z,12.35
2022-10-14T09:08:08.183Z,12.40
2022-10-14T09:11:21.589Z,12.48
2022-10-14T09:14:27.088Z,12.57
2022-10-14T09:17:37.978Z,12.61
2022-10-14T09:20:41.410Z,12.60
2022-10-14T09:23:43.005Z,12.59
2022-10-14T09:26:47.265Z,12.61
2022-10-14T09:30:00.539Z,12.64
2022-10-14T09:33:03.760Z,12.66
2022-10-14T09:36:07.256Z,12.71
2022-10-14T09:39:12.309Z,12.76
2022-10-14T09:42:19.212Z,12.79
2022-10-14T09:45:22.959Z,12.86
2022-10-14T09:48:47.735Z,12.93
2022-10-14T09:51:50.312Z,12.93
2022-10-14T09:55:01.482Z,12.92
2022-10-14T09:58:06.841Z,12.88
2022-10-14T10:01:15.810Z,12.94
2022-10-14T10:04:47.282Z,13.10
2022-10-14T10:08:04.236Z,13.16
2022-10-14T10:11:10.540Z,13.17
2022-10-14T10:14:33.167Z,13.13
2022-10-14T10:17:38.933Z,13.09
2022-10-14T10:20:40.516Z,13.09
2022-10-14T10:24:03.643Z,13.19
2022-10-14T10:27:20.574Z,13.31
2022-10-14T10:30:28.847Z,13.41
2022-10-14T10:33:48.291Z,13.56
2022-10-14T10:37:01.893Z,13.72
2022-10-14T10:40:18.333Z,13.85
2022-10-14T10:43:25.826Z,13.93
2022-10-14T10:46:45.170Z,13.99
2022-10-14T10:50:20.925Z,14.08
2022-10-14T10:53:37.403Z,14.13
2022-10-14T10:57:01.931Z,14.09
2022-10-14T11:00:13.539Z,14.02
2022-10-14T11:03:33.727Z,13.99
2022-10-14T11:07:04.175Z,13.98
2022-10-14T11:10:33.370Z,13.96
2022-10-14T11:14:02.439Z,13.93
2022-10-14T11:17:41.437Z,13.86
2022-10-14T11:20:47.764Z,13.77
2022-10-14T11:24:26.246Z,13.75
2022-10-14T11:27:37.770Z,13.88
2022-10-14T11:30:51.875Z,13.89
2022-10-14T11:34:01.253Z,13.89
2022-10-14T11:37:27.049Z,13.85
2022-10-14T11:40:57.016Z,13.79
2022-10-14T11:44:19.984Z,13.74
2022-10-14T11:47:25.080Z,13.72
2022-10-14T11:50:32.245Z,13.72
2022-10-14T11:53:49.004Z,13.73
2022-10-14T11:57:11.708Z,13.73
2022-10-14T12:00:37.954Z,13.73
2022-10-14T12:04:17.101Z,13.77
2022-10-14T12:07:27.907Z,13.76
2022-10-14T12:10:34.576Z,13.78
2022-10-14T12:13:44.653Z,13.78
2022-10-14T12:16:48.628Z,13.79
2022-10-14T12:19:51.377Z,13.77
2022-10-14T12:22:54.666Z,13.70
2022-10-14T12:26:14.596Z,13.65
2022-10-14T12:29:20.561Z,13.64
2022-10-14T12:32:31.959Z,13.61
2022-10-14T12:35:51.092Z,13.54
2022-10-14T12:39:17.618Z,13.46
2022-10-14T12:42:20.842Z,13.45
2022-10-14T12:45:26.299Z,13.46
2022-10-14T12:48:33.412Z,13.49
2022-10-14T12:51:35.018Z,13.46
2022-10-14T12:54:45.363Z,13.44
2022-10-14T12:58:04.935Z,13.44
2022-10-14T13:01:19.001Z,13.43
2022-10-14T13:04:20.767Z,13.38
2022-10-14T13:07:46.297Z,13.34
2022-10-14T13:11:00.356Z,13.37
2022-10-14T13:14:02.147Z,13.41
2022-10-14T13:17:24.537Z,13.43
2022-10-14T13:20:35.319Z,13.42
2022-10-14T13:23:41.910Z,13.41
2022-10-14T13:26:55.785Z,13.38
2022-10-14T13:30:15.489Z,13.51
2022-10-14T13:33:55.555Z,13.74
2022-10-14T13:37:19.941Z,13.95
2022-10-14T13:40:37.019Z,14.17
2022-10-14T13:43:42.735Z,14.41
2022-10-14T13:46:47.609Z,14.61
2022-10-14T13:49:50.846Z,14.80
2022-10-14T13:52:57.961Z,14.99
2022-10-14T13:55:59.517Z,15.03
2022-10-14T13:59:01.081Z,15.00
2022-10-14T14:02:04.009Z,14.89
2022-10-14T14:05:06.106Z,14.75
2022-10-14T14:11:38.211Z,14.55
2022-10-14T14:14:43.707Z,14.50
2022-10-14T14:17:45.265Z,14.45
2022-10-14T14:20:58.047Z,14.35
2022-10-14T14:24:01.279Z,14.33
2022-10-14T14:27:03.390Z,14.33
2022-10-14T14:30:20.551Z,14.32
2022-10-14T14:33:43.166Z,14.29
2022-10-14T14:36:57.928Z,14.29
2022-10-14T14:40:18.421Z,14.30
2022-10-14T14:43:20.281Z,14.28
2022-10-14T14:46:36.504Z,14.27
2022-10-14T14:49:39.839Z,14.23
2022-10-14T14:52:43.196Z,14.19
2022-10-14T14:56:00.435Z,14.14
2022-10-14T14:59:22.655Z,14.08
2022-10-14T15:02:25.819Z,14.01
2022-10-14T15:05:27.916Z,13.97
2022-10-14T15:08:36.784Z,13.95
2022-10-14T15:11:52.634Z,13.96
2022-10-14T15:15:02.355Z,14.03
2022-10-14T15:18:12.080Z,14.17
2022-10-14T15:21:16.924Z,14.35
2022-10-14T15:24:18.645Z,14.56
2022-10-14T15:27:38.331Z,14.75
2022-10-14T15:30:40.319Z,14.82
2022-10-14T15:33:41.932Z,14.93
2022-10-14T15:36:43.545Z,15.07
2022-10-14T15:39:45.334Z,15.26
2022-10-14T15:42:47.754Z,15.45
2022-10-14T15:46:11.046Z,15.44
2022-10-14T15:49:25.527Z,15.20
2022-10-14T15:52:29.503Z,14.96
2022-10-14T15:55:33.942Z,14.76
2022-10-14T15:58:35.501Z,14.56
2022-10-14T16:01:39.892Z,14.34
2022-10-14T16:04:55.027Z,14.16
2022-10-14T16:08:03.354Z,13.99
2022-10-14T16:11:06.298Z,13.87
2022-10-14T16:14:09.929Z,13.74
2022-10-14T16:17:11.512Z,13.63
2022-10-14T16:20:13.172Z,13.55
2022-10-14T16:23:19.251Z,13.48
2022-10-14T16:26:21.199Z,13.41
2022-10-14T16:29:22.813Z,13.35
2022-10-14T16:32:24.417Z,13.29
2022-10-14T16:35:25.942Z,13.23
2022-10-14T16:38:28.251Z,13.18
2022-10-14T16:41:30.986Z,13.13
2022-10-14T16:44:33.203Z,13.10
2022-10-14T16:47:34.791Z,13.07
2022-10-14T16:50:36.327Z,13.34
2022-10-14T16:53:40.525Z,13.27
2022-10-14T16:56:54.251Z,13.23
2022-10-14T16:59:55.908Z,13.19
2022-10-14T17:02:57.448Z,13.13
2022-10-14T17:05:59.001Z,13.06
2022-10-14T17:09:00.685Z,13.02
2022-10-14T17:12:05.866Z,12.97
2022-10-14T17:15:10.159Z,12.91
2022-10-14T17:18:12.606Z,12.86
2022-10-14T17:21:14.880Z,12.83
2022-10-14T17:24:17.048Z,12.79
2022-10-14T17:27:19.630Z,12.76
2022-10-14T17:30:21.181Z,12.75
2022-10-14T17:33:24.017Z,12.74
2022-10-14T17:36:27.996Z,12.73
2022-10-14T17:39:29.861Z,12.77
2022-10-14T17:42:31.555Z,13.05
2022-10-14T17:45:33.176Z,13.33
2022-10-14T17:48:35.752Z,13.42
2022-10-14T17:51:38.741Z,13.37
2022-10-14T17:54:40.273Z,13.31
2022-10-14T17:57:41.789Z,13.21
2022-10-14T18:00:43.724Z,13.11
2022-10-14T18:03:45.547Z,13.04
2022-10-14T18:06:47.464Z,13.02
2022-10-14T18:09:50.237Z,13.07
2022-10-14T18:12:51.813Z,13.04
2022-10-14T18:15:54.239Z,13.05
2022-10-14T18:18:55.805Z,13.05
2022-10-14T18:21:57.920Z,12.99
2022-10-14T18:24:59.472Z,12.91
2022-10-14T18:28:01.002Z,12.83
2022-10-14T18:31:11.347Z,12.77
2022-10-14T18:34:14.054Z,12.70
2022-10-14T18:37:15.627Z,12.64
2022-10-14T18:40:18.403Z,12.63
2022-10-14T18:43:19.960Z,12.65
2022-10-14T18:46:23.955Z,12.67
2022-10-14T18:49:25.499Z,12.67
2022-10-14T18:52:27.078Z,12.67
2022-10-14T18:55:28.625Z,12.67
2022-10-14T18:58:30.157Z,12.63
2022-10-14T19:01:31.783Z,12.59
2022-10-14T19:04:33.354Z,12.55
2022-10-14T19:07:34.873Z,12.53
2022-10-14T19:10:36.408Z,12.54
2022-10-14T19:13:40.032Z,12.54
2022-10-14T19:16:42.848Z,12.53
2022-10-14T19:19:44.946Z,12.53
2022-10-14T19:22:46.502Z,12.54
2022-10-14T19:25:48.018Z,12.53
2022-10-14T19:28:52.138Z,12.55
2022-10-14T19:31:54.582Z,12.58
2022-10-14T19:34:56.121Z,12.60
2022-10-14T19:37:57.642Z,12.60
2022-10-14T19:41:04.380Z,12.60
2022-10-14T19:44:06.001Z,12.60
2022-10-14T19:47:07.664Z,12.64
2022-10-14T19:50:09.519Z,12.65
2022-10-14T19:53:11.502Z,12.65
2022-10-14T19:56:13.715Z,12.68
2022-10-14T19:59:16.505Z,12.70
2022-10-14T20:02:18.052Z,12.73
2022-10-14T20:05:19.611Z,12.73
2022-10-14T20:08:21.163Z,12.74
2022-10-14T20:11:24.485Z,12.77
2022-10-14T20:14:26.033Z,12.76
2022-10-14T20:17:27.940Z,12.77
2022-10-14T20:20:29.480Z,12.77
2022-10-14T20:23:34.068Z,12.77
2022-10-14T20:26:37.573Z,12.79
2022-10-14T20:29:39.229Z,12.80
2022-10-14T20:32:40.757Z,12.80
2022-10-14T20:35:42.308Z,12.79
2022-10-14T20:38:44.504Z,12.82
2022-10-14T20:41:46.027Z,12.83
2022-10-14T20:44:47.524Z,12.84
2022-10-14T20:47:53.381Z,12.86
2022-10-14T20:50:55.412Z,12.89
2022-10-14T20:54:02.620Z,12.90
2022-10-14T20:57:05.813Z,12.90
2022-10-14T21:00:08.644Z,12.95
2022-10-14T21:03:10.432Z,12.97
2022-10-14T21:06:17.625Z,12.96
2022-10-14T21:09:19.168Z,12.98
2022-10-14T21:12:21.190Z,12.98
2022-10-14T21:15:26.820Z,12.99
2022-10-14T21:18:29.282Z,13.00
2022-10-14T21:21:36.119Z,12.98
2022-10-14T21:24:41.218Z,12.99
2022-10-14T21:27:42.757Z,13.01
2022-10-14T21:30:44.338Z,13.04
2022-10-14T21:33:47.518Z,13.04
2022-10-14T21:36:49.110Z,13.06
2022-10-14T21:39:50.597Z,13.05
2022-10-14T21:42:52.325Z,13.07
2022-10-14T21:45:54.303Z,13.08
2022-10-14T21:48:57.331Z,13.08
2022-10-14T21:51:58.828Z,13.07
2022-10-14T21:55:00.418Z,13.08
2022-10-14T21:58:02.038Z,13.07
2022-10-14T22:01:07.944Z,13.07
2022-10-14T22:04:10.613Z,13.06
2022-10-14T22:07:12.284Z,13.06
2022-10-14T22:10:32.668Z,13.03
2022-10-14T22:13:35.418Z,13.00
2022-10-14T22:16:37.002Z,13.12
2022-10-14T22:19:38.528Z,13.07
2022-10-14T22:22:40.239Z,13.05
2022-10-14T22:25:41.947Z,13.02
2022-10-14T22:28:43.838Z,13.00
2022-10-14T22:31:46.540Z,12.98
2022-10-14T22:34:48.113Z,12.98
2022-10-14T22:37:50.160Z,13.19
2022-10-14T22:40:51.709Z,13.42
2022-10-14T22:43:56.641Z,13.47
2022-10-14T22:46:58.175Z,13.42
2022-10-14T22:49:59.715Z,13.36
2022-10-14T22:53:01.233Z,13.30
2022-10-14T22:56:03.763Z,13.24
2022-10-14T22:59:08.533Z,13.16
2022-10-14T23:02:10.052Z,13.07
2022-10-14T23:05:11.582Z,13.02
2022-10-14T23:08:14.892Z,12.96
2022-10-14T23:11:19.807Z,12.91
2022-10-14T23:14:21.561Z,12.83
2022-10-14T23:17:23.113Z,12.78
2022-10-14T23:20:24.756Z,12.72
2022-10-14T23:23:26.275Z,12.67
2022-10-14T23:26:34.561Z,12.63
2022-10-14T23:29:36.106Z,12.56
2022-10-14T23:32:37.918Z,12.51
2022-10-14T23:35:39.600Z,12.46
2022-10-14T23:38:42.031Z,12.43
2022-10-14T23:41:43.599Z,12.39
2022-10-14T23:44:45.120Z,12.33
2022-10-14T23:47:46.653Z,12.30
2022-10-14T23:50:48.260Z,12.23
2022-10-14T23:53:49.748Z,12.19
2022-10-14T23:56:51.830Z,12.16
2022-10-14T23:59:53.384Z,12.12
